Latest Weather Observations for Bega

IDN60801

Issued at 11:33 pm EST Saturday 22 June 2024 (issued every 10 minutes, with the page automatically refreshed every 10 minutes)

About weather observations | Map of weather stations | Latest weather observations for NSW | Other Formats
Station Details ID: 069139 Name: BEGA AWS Lat: -36.67 Lon: 149.82 Height: 41.0 m
Data from the previous 72 hours. | See also: Recent months at Bega
Date/Time
EST
Temp
°C
App
Temp
°C
Dew
Point
°C
Rel
Hum
%
Delta-T
°C
Wind Press
QNH
hPa
Press
MSL
hPa
Rain since
9am
mm
Dir  Spd
km/h
Gust
km/h
Spd
kts
Gust
kts
22/11:30pm 8.4 7.7 7.0 91 0.6 CALM 0 0 0 0 1027.6 1027.7 0.0
22/11:00pm 8.6 7.9 7.1 90 0.7 CALM 0 0 0 0 1027.6 1027.7 0.0
22/10:30pm 9.2 8.5 6.8 85 1.1 CALM 0 0 0 0 1027.7 1027.8 0.0
22/10:00pm 9.3 8.6 7.1 86 1.0 CALM 0 0 0 0 1027.8 1027.9 0.0
22/09:30pm 9.1 8.4 7.1 87 0.9 CALM 0 2 0 1 1027.9 1028.0 0.0
22/09:00pm 9.7 8.2 6.8 82 1.4 WNW 4 7 2 4 1027.8 1027.9 0.0
22/08:30pm 10.2 9.4 6.5 78 1.7 CALM 0 0 0 0 1027.8 1027.9 0.0
22/08:00pm 9.9 8.3 6.4 79 1.6 ENE 4 7 2 4 1027.7 1027.8 0.0
22/07:30pm 10.2 8.9 6.0 75 1.9 SW 2 7 1 4 1027.5 1027.6 0.0
22/07:00pm 11.4 7.7 6.1 70 2.5 SW 15 22 8 12 1027.3 1027.4 0.0
22/06:30pm 11.7 9.5 6.2 69 2.6 SW 7 11 4 6 1027.3 1027.4 0.0
22/06:00pm 11.8 9.3 6.5 70 2.5 SSW 9 11 5 6 1027.3 1027.4 0.0
22/05:30pm 12.4 9.5 6.5 67 2.8 SW 11 17 6 9 1026.9 1027.0 0.0
22/05:00pm 12.9 9.7 6.7 66 3.0 SW 13 17 7 9 1026.8 1026.9 0.0
22/04:30pm 12.8 9.6 7.0 68 2.8 WSW 13 19 7 10 1026.7 1026.8 0.0
22/04:00pm 13.1 9.5 6.7 65 3.1 WSW 15 22 8 12 1026.6 1026.7 0.0
22/03:30pm 13.6 9.7 7.2 65 3.1 SW 17 22 9 12 1026.6 1026.7 0.0
22/03:00pm 13.9 9.0 6.7 62 3.5 SW 22 33 12 18 1026.5 1026.6 0.0
22/02:30pm 14.9 10.7 7.5 61 3.7 SSW 19 28 10 15 1026.5 1026.6 0.0
22/02:00pm 14.6 9.7 6.7 59 3.8 SW 22 32 12 17 1026.5 1026.6 0.0
22/01:30pm 15.0 10.1 6.8 58 4.0 SSW 22 32 12 17 1026.5 1026.6 0.0
22/01:00pm 15.3 10.4 6.8 57 4.1 SSW 22 30 12 16 1026.8 1026.9 0.0
22/12:30pm 14.6 9.7 6.7 59 3.8 SW 22 32 12 17 1026.9 1027.0 0.0
22/12:00pm 14.6 9.2 6.4 58 3.9 SSW 24 33 13 18 1027.2 1027.3 0.0
22/11:30am 14.8 10.0 7.4 61 3.7 SW 22 35 12 19 1027.4 1027.5 0.0
22/11:00am 14.3 9.0 6.9 61 3.6 SW 24 35 13 19 1027.5 1027.6 0.0
22/10:30am 13.9 8.2 6.7 62 3.5 SW 26 35 14 19 1027.8 1027.9 0.0
22/10:00am 13.7 10.5 7.0 64 3.2 WSW 13 22 7 12 1027.7 1027.8 0.0
22/09:30am 12.8 8.2 6.4 65 3.1 WSW 20 30 11 16 1027.6 1027.7 0.0
22/09:00am 12.2 8.1 6.3 67 2.8 WSW 17 28 9 15 1027.2 1027.3 1.4
22/08:30am 11.6 7.1 6.1 69 2.6 WSW 19 28 10 15 1027.1 1027.2 1.4
22/08:00am 11.2 6.6 5.7 69 2.5 WSW 19 28 10 15 1026.9 1027.0 1.4
22/07:30am 11.2 7.0 5.7 69 2.6 WSW 17 28 9 15 1026.7 1026.8 1.4
22/07:00am 10.8 6.8 5.1 68 2.6 WSW 15 24 8 13 1026.3 1026.4 1.4
22/06:30am 11.0 7.5 5.3 68 2.6 WSW 13 20 7 11 1026.0 1026.1 1.4
22/06:00am 11.0 7.4 5.1 67 2.7 WSW 13 19 7 10 1025.6 1025.7 1.4
22/05:30am 11.0 6.6 4.9 66 2.8 WSW 17 24 9 13 1025.2 1025.3 1.4
22/05:00am 10.6 6.2 4.9 68 2.6 WSW 17 24 9 13 1024.7 1024.8 1.4
22/04:30am 10.5 6.2 5.1 69 2.5 WSW 17 24 9 13 1024.5 1024.6 1.4
22/04:00am 10.3 6.7 5.1 70 2.3 WSW 13 19 7 10 1024.6 1024.7 1.4
22/03:30am 10.8 6.5 5.3 69 2.5 WSW 17 24 9 13 1024.5 1024.6 1.4
22/03:00am 10.5 7.7 5.3 70 2.4 WSW 9 15 5 8 1024.5 1024.6 1.4
22/02:30am 11.3 6.7 5.6 68 2.6 WSW 19 24 10 13 1024.2 1024.2 1.4
22/02:00am 11.0 6.8 5.5 69 2.5 SW 17 24 9 13 1024.3 1024.3 1.4
22/01:30am 10.9 6.1 5.7 70 2.4 WSW 20 32 11 17 1023.9 1023.9 1.4
22/01:00am 10.3 7.2 5.7 73 2.1 WSW 11 22 6 12 1023.7 1023.7 1.4
22/12:30am 10.2 7.1 5.4 72 2.2 WSW 11 20 6 11 1023.8 1023.8 1.4
22/12:00am 10.4 6.9 5.6 72 2.2 SW 13 20 7 11 1023.8 1023.8 1.4
 
Date/Time
EST
Temp
°C
App
Temp
°C
Dew
Point
°C
Rel
Hum
%
Delta-T
°C
Wind Press
QNH
hPa
Press
MSL
hPa
Rain since
9am
mm
Dir  Spd
km/h
Gust
km/h
Spd
kts
Gust
kts
21/11:30pm 9.7 6.8 4.7 71 2.2 W 9 13 5 7 1023.9 1023.9 1.4
21/11:00pm 10.6 6.7 5.2 69 2.5 SW 15 22 8 12 1023.8 1023.8 1.4
21/10:30pm 10.3 5.9 4.9 69 2.4 WSW 17 20 9 11 1023.6 1023.6 1.4
21/10:00pm 10.7 5.7 4.8 67 2.7 WSW 20 30 11 16 1023.3 1023.3 1.4
21/09:30pm 10.5 5.1 4.6 67 2.7 WSW 22 32 12 17 1022.9 1022.9 1.4
21/09:00pm 10.6 5.6 4.7 67 2.6 WSW 20 28 11 15 1022.6 1022.6 1.4
21/08:30pm 10.5 6.6 5.5 71 2.3 WSW 15 20 8 11 1022.5 1022.5 1.4
21/08:00pm 10.3 6.2 6.3 76 1.9 WSW 17 24 9 13 1022.4 1022.4 1.4
21/07:30pm 9.7 7.6 6.6 81 1.4 SW 7 11 4 6 1022.2 1022.2 1.4
21/07:00pm 9.8 8.0 7.2 84 1.2 WSW 6 9 3 5 1021.9 1021.9 1.4
21/06:30pm 9.8 8.1 7.6 86 1.1 WNW 6 9 3 5 1021.7 1021.7 1.4
21/06:00pm 10.0 8.3 7.6 85 1.1 W 6 13 3 7 1021.5 1021.5 1.4
21/05:30pm 10.2 6.0 7.6 84 1.2 WSW 19 26 10 14 1021.0 1021.0 1.2
21/05:00pm 10.1 6.3 7.7 85 1.1 W 17 22 9 12 1020.7 1020.7 1.0
21/04:30pm 10.1 6.5 8.4 89 0.8 W 17 24 9 13 1020.3 1020.3 1.0
21/04:00pm 11.0 6.8 8.2 83 1.4 SW 20 32 11 17 1020.0 1020.0 0.8
21/03:30pm 10.9 7.8 9.0 88 0.9 W 15 20 8 11 1019.5 1019.5 0.8
21/03:00pm 11.1 8.8 9.0 87 1.0 W 11 17 6 9 1019.3 1019.3 0.4
21/02:30pm 11.5 8.8 9.1 85 1.2 W 13 19 7 10 1019.1 1019.1 0.4
21/02:00pm 12.0 10.0 8.7 80 1.6 SW 9 13 5 7 1019.0 1019.0 0.2
21/01:30pm 12.8 8.4 7.3 69 2.7 SW 20 30 11 16 1018.9 1018.9 0.0
21/01:00pm 13.6 9.1 6.9 64 3.2 WSW 20 28 11 15 1018.5 1018.5 0.0
21/12:30pm 13.8 9.5 7.1 64 3.3 SW 19 28 10 15 1018.6 1018.6 0.0
21/12:00pm 13.7 9.7 6.6 62 3.4 SW 17 26 9 14 1018.7 1018.7 0.0
21/11:30am 13.8 11.9 7.6 66 3.1 ENE 7 11 4 6 1018.8 1018.8 0.0
21/11:00am 11.5 9.5 6.4 71 2.4 ENE 6 9 3 5 1019.1 1019.1 0.0
21/10:30am 9.7 8.4 5.9 77 1.7 NE 2 6 1 3 1019.4 1019.4 0.0
21/10:00am 6.1 4.7 3.8 85 1.0 CALM 0 0 0 0 1019.5 1019.5 0.0
21/09:30am 4.7 3.4 4.0 95 0.3 CALM 0 0 0 0 1019.5 1019.5 0.0
21/09:00am 2.2 0.5 2.1 99 0.0 CALM 0 0 0 0 1019.4 1019.4 0.2
21/08:30am 0.3 -1.7 0.2 99 0.0 CALM 0 0 0 0 1019.2 1019.2 0.2
21/08:00am 0.4 -1.5 0.3 99 0.0 CALM 0 0 0 0 1019.0 1019.0 0.2
21/07:30am -0.6 -3.1 -0.7 99 0.0 NW 2 7 1 4 1018.9 1018.9 0.2
21/07:00am -0.6 -3.8 -0.7 99 0.0 SSW 6 7 3 4 1018.4 1018.4 0.2
21/06:30am 0.0 -2.0 -0.1 99 0.0 CALM 0 0 0 0 1018.1 1018.1 0.2
21/06:00am 0.2 -1.8 0.1 99 0.0 CALM 0 0 0 0 1017.8 1017.8 0.2
21/05:30am 0.6 -1.3 0.5 99 0.0 CALM 0 0 0 0 1017.4 1017.4 0.2
21/05:00am 0.5 -1.4 0.4 99 0.0 CALM 0 0 0 0 1017.4 1017.4 0.2
21/04:30am 0.7 -2.0 0.6 99 0.0 SSW 4 6 2 3 1017.0 1017.0 0.2
21/04:00am 0.9 -2.1 0.8 99 0.0 SSW 6 7 3 4 1016.9 1016.9 0.2
21/03:30am 0.7 -1.6 0.6 99 0.0 NE 2 7 1 4 1016.7 1016.7 0.2
21/03:00am 1.3 -1.6 1.2 99 0.0 N 6 7 3 4 1016.9 1016.9 0.2
21/02:30am 0.9 -1.7 0.8 99 0.0 SSW 4 6 2 3 1017.0 1017.0 0.2
21/02:00am 1.1 -0.7 1.0 99 0.0 CALM 0 0 0 0 1017.0 1017.0 0.2
21/01:30am 1.2 -0.6 1.1 99 0.0 CALM 0 0 0 0 1017.1 1017.1 0.2
21/01:00am 1.1 -0.7 1.0 99 0.0 CALM 0 0 0 0 1017.2 1017.2 0.2
21/12:30am 1.2 -0.6 1.1 99 0.0 CALM 0 0 0 0 1017.2 1017.2 0.2
21/12:00am 1.4 -0.4 1.3 99 0.0 CALM 0 0 0 0 1017.6 1017.6 0.2
 
Date/Time
EST
Temp
°C
App
Temp
°C
Dew
Point
°C
Rel
Hum
%
Delta-T
°C
Wind Press
QNH
hPa
Press
MSL
hPa
Rain since
9am
mm
Dir  Spd
km/h
Gust
km/h
Spd
kts
Gust
kts
20/11:30pm 1.2 -0.6 0.9 98 0.1 CALM 0 0 0 0 1017.6 1017.6 0.2
20/11:00pm 1.9 -0.6 1.6 98 0.1 WSW 4 9 2 5 1017.6 1017.6 0.2
20/10:30pm 1.9 0.1 1.3 96 0.2 CALM 0 0 0 0 1017.6 1017.6 0.2
20/10:00pm 2.5 0.8 1.9 96 0.2 CALM 0 0 0 0 1017.5 1017.5 0.2
20/09:30pm 2.7 1.1 2.3 97 0.2 CALM 0 0 0 0 1017.6 1017.6 0.2
20/09:00pm 2.6 0.2 2.3 98 0.1 SSW 4 9 2 5 1017.6 1017.6 0.2
20/08:30pm 3.0 1.3 2.1 94 0.4 CALM 0 0 0 0 1017.6 1017.6 0.2
20/08:00pm 4.2 2.6 2.7 90 0.6 CALM 0 0 0 0 1017.5 1017.5 0.2
20/07:30pm 4.2 2.7 3.2 93 0.4 CALM 0 0 0 0 1017.4 1017.4 0.2
20/07:00pm 4.4 2.1 2.8 89 0.6 SSW 4 7 2 4 1017.1 1017.1 0.2
20/06:30pm 6.1 4.7 3.4 83 1.1 CALM 0 0 0 0 1016.7 1016.7 0.2
20/06:00pm 7.2 5.3 3.1 75 1.7 NW 2 7 1 4 1016.4 1016.4 0.2
20/05:30pm 10.1 8.5 4.3 67 2.6 NW 2 6 1 3 1016.0 1016.0 0.2
20/05:00pm 10.7 8.2 3.5 61 3.2 S 6 9 3 5 1015.7 1015.7 0.2
20/04:30pm 11.9 10.3 2.6 53 4.0 CALM 0 0 0 0 1015.5 1015.6 0.2
20/04:00pm 12.7 9.5 2.8 51 4.4 N 9 11 5 6 1015.7 1015.7 0.2
20/03:30pm 14.4 11.7 2.6 45 5.3 NNE 6 7 3 4 1015.5 1015.6 0.2
20/03:00pm 14.6 12.7 2.8 45 5.3 E 2 7 1 4 1015.5 1015.6 0.0
20/02:30pm 14.9 12.6 2.8 44 5.4 SE 4 7 2 4 1015.4 1015.5 0.0
20/02:00pm 14.6 11.8 3.1 46 5.2 ENE 7 11 4 6 1015.1 1015.2 0.0
20/01:30pm 14.6 11.7 2.8 45 5.3 NE 7 11 4 6 1015.3 1015.4 0.0
20/01:00pm 14.1 11.9 3.3 48 4.9 SE 4 9 2 5 1015.7 1015.7 0.0
20/12:30pm 14.0 11.9 5.6 57 4.0 ENE 6 7 3 4 1016.1 1016.1 0.0
20/12:00pm 12.1 10.0 5.9 66 2.9 ENE 6 7 3 4 1016.6 1016.6 0.0
20/11:30am 11.1 9.0 6.0 71 2.4 ENE 6 7 3 4 1017.0 1017.0 0.0
20/11:00am 9.3 7.6 5.9 79 1.6 E 4 7 2 4 1017.5 1017.5 0.0
20/10:30am 7.4 6.3 4.9 84 1.1 CALM 0 0 0 0 1018.0 1018.0 0.0
20/10:00am 4.7 3.3 3.5 92 0.5 CALM 0 0 0 0 1018.3 1018.3 0.0
20/09:30am 3.8 2.4 3.7 99 0.0 CALM 0 0 0 0 1018.3 1018.3 0.0
20/09:00am 2.0 -0.1 1.9 99 0.0 ENE 2 6 1 3 1018.2 1018.2 0.0
20/08:30am 1.4 -0.4 1.3 99 0.0 CALM 0 0 0 0 1017.9 1017.9 0.0
20/08:00am -0.4 -2.5 -0.5 99 0.0 CALM 0 0 0 0 1017.8 1017.8 0.0
20/07:30am -1.5 -3.7 -1.6 99 0.0 CALM 0 0 0 0 1017.5 1017.5 0.0
20/07:00am -0.3 -2.3 -0.4 99 0.0 CALM 0 0 0 0 1017.3 1017.3 0.0
20/06:30am -1.2 -3.4 -1.3 99 0.0 CALM 0 0 0 0 1017.1 1017.1 0.0
20/06:00am -0.9 -3.0 -1.0 99 0.0 CALM 0 0 0 0 1016.9 1016.9 0.0
20/05:30am -1.1 -3.3 -1.2 99 0.0 CALM 0 0 0 0 1016.8 1016.8 0.0
20/05:00am -0.1 -2.1 -0.2 99 0.0 CALM 0 0 0 0 1016.8 1016.8 0.0
20/04:30am -0.4 -2.5 -0.5 99 0.0 CALM 0 0 0 0 1016.6 1016.6 0.0
20/04:00am -0.7 -2.8 -0.8 99 0.0 CALM 0 0 0 0 1016.5 1016.5 0.0
20/03:30am 0.1 -1.9 0.0 99 0.0 CALM 0 0 0 0 1016.5 1016.5 0.0
20/03:00am 0.8 -1.5 0.7 99 0.0 N 2 6 1 3 1016.6 1016.6 0.0
20/02:30am 0.9 -1.0 0.8 99 0.0 CALM 0 0 0 0 1016.6 1016.6 0.0
20/02:00am 0.4 -1.5 0.3 99 0.0 CALM 0 0 0 0 1016.7 1016.7 0.0
20/01:30am 1.3 -0.5 1.2 99 0.0 CALM 0 0 0 0 1016.8 1016.8 0.0
20/01:00am 1.1 -0.7 1.0 99 0.0 CALM 0 0 0 0 1016.9 1016.9 0.0
20/12:30am 1.1 -0.7 1.0 99 0.0 CALM 0 0 0 0 1016.8 1016.8 0.0
20/12:00am 1.8 0.1 1.7 99 0.0 CALM 0 0 0 0 1017.0 1017.0 0.0

Other formats

Comma delimited format used in spreadsheet applications
http://www.bom.gov.au/fwo/IDN60801/IDN60801.95931.axf

JavaScript Object Notation format (JSON) in row-major order
http://www.bom.gov.au/fwo/IDN60801/IDN60801.95931.json

Data quality

Most of these data are generated automatically and are frequently updated. Quality checks on data are not normally performed. It is possible for incorrect values to appear. Refer to information at About Latest Weather Observations and please check the disclaimer before using these data.